sensor_id;sensor_type;location;lat;lon;timestamp;pressure;altitude;pressure_sealevel;temperature;humidity
58662;BME280;44432;49.786;22.760;2023-02-11T00:00:52;101035.78;;;-0.27;65.78
58662;BME280;44432;49.786;22.760;2023-02-11T00:03:28;101025.92;;;-0.27;65.59
58662;BME280;44432;49.786;22.760;2023-02-11T00:06:00;101021.42;;;-0.27;65.74
58662;BME280;44432;49.786;22.760;2023-02-11T00:08:31;101021.05;;;-0.27;65.72
58662;BME280;44432;49.786;22.760;2023-02-11T00:11:02;101017.73;;;-0.26;65.72
58662;BME280;44432;49.786;22.760;2023-02-11T00:13:33;101014.45;;;-0.26;65.82
58662;BME280;44432;49.786;22.760;2023-02-11T00:16:09;101016.18;;;-0.26;65.95
58662;BME280;44432;49.786;22.760;2023-02-11T00:18:40;101017.94;;;-0.27;65.89
58662;BME280;44432;49.786;22.760;2023-02-11T00:21:12;101011.34;;;-0.26;65.91
58662;BME280;44432;49.786;22.760;2023-02-11T00:23:43;101011.67;;;-0.26;65.92
58662;BME280;44432;49.786;22.760;2023-02-11T00:26:16;101008.17;;;-0.25;65.97
58662;BME280;44432;49.786;22.760;2023-02-11T00:28:48;101006.32;;;-0.26;66.02
58662;BME280;44432;49.786;22.760;2023-02-11T00:31:20;101004.66;;;-0.25;66.02
58662;BME280;44432;49.786;22.760;2023-02-11T00:33:52;101000.19;;;-0.25;66.11
58662;BME280;44432;49.786;22.760;2023-02-11T00:36:25;101005.17;;;-0.25;66.18
58662;BME280;44432;49.786;22.760;2023-02-11T00:38:57;101001.50;;;-0.24;66.14
58662;BME280;44432;49.786;22.760;2023-02-11T00:41:28;100998.24;;;-0.25;66.26
58662;BME280;44432;49.786;22.760;2023-02-11T00:44:00;100996.63;;;-0.24;66.21
58662;BME280;44432;49.786;22.760;2023-02-11T00:46:30;100991.79;;;-0.24;66.10
58662;BME280;44432;49.786;22.760;2023-02-11T00:49:01;100987.28;;;-0.24;66.28
58662;BME280;44432;49.786;22.760;2023-02-11T00:51:32;100978.63;;;-0.24;66.13
58662;BME280;44432;49.786;22.760;2023-02-11T00:54:03;100971.25;;;-0.22;66.16
58662;BME280;44432;49.786;22.760;2023-02-11T00:56:34;100971.13;;;-0.23;66.25
58662;BME280;44432;49.786;22.760;2023-02-11T00:59:08;100959.52;;;-0.22;66.16
58662;BME280;44432;49.786;22.760;2023-02-11T01:01:39;100960.04;;;-0.23;66.22
58662;BME280;44432;49.786;22.760;2023-02-11T01:04:09;100951.77;;;-0.23;66.22
58662;BME280;44432;49.786;22.760;2023-02-11T01:06:40;100939.61;;;-0.22;66.25
58662;BME280;44432;49.786;22.760;2023-02-11T01:09:11;100942.25;;;-0.23;66.08
58662;BME280;44432;49.786;22.760;2023-02-11T01:11:42;100939.86;;;-0.23;66.15
58662;BME280;44432;49.786;22.760;2023-02-11T01:14:13;100936.23;;;-0.24;66.17
58662;BME280;44432;49.786;22.760;2023-02-11T01:16:43;100934.34;;;-0.24;66.19
58662;BME280;44432;49.786;22.760;2023-02-11T01:19:14;100932.05;;;-0.23;66.22
58662;BME280;44432;49.786;22.760;2023-02-11T01:21:45;100927.35;;;-0.23;66.43
58662;BME280;44432;49.786;22.760;2023-02-11T01:24:16;100929.70;;;-0.22;66.36
58662;BME280;44432;49.786;22.760;2023-02-11T01:26:46;100922.63;;;-0.22;66.37
58662;BME280;44432;49.786;22.760;2023-02-11T01:29:17;100922.15;;;-0.23;66.30
58662;BME280;44432;49.786;22.760;2023-02-11T01:31:49;100915.57;;;-0.23;66.22
58662;BME280;44432;49.786;22.760;2023-02-11T01:34:20;100912.66;;;-0.23;66.31
58662;BME280;44432;49.786;22.760;2023-02-11T01:36:51;100906.33;;;-0.24;66.25
58662;BME280;44432;49.786;22.760;2023-02-11T01:39:26;100906.02;;;-0.25;66.31
58662;BME280;44432;49.786;22.760;2023-02-11T01:41:58;100898.08;;;-0.25;66.32
58662;BME280;44432;49.786;22.760;2023-02-11T01:44:32;100893.20;;;-0.25;66.21
58662;BME280;44432;49.786;22.760;2023-02-11T01:47:03;100894.40;;;-0.24;66.03
58662;BME280;44432;49.786;22.760;2023-02-11T01:49:37;100894.30;;;-0.25;66.17
58662;BME280;44432;49.786;22.760;2023-02-11T01:52:11;100894.80;;;-0.25;66.28
58662;BME280;44432;49.786;22.760;2023-02-11T01:54:47;100896.40;;;-0.26;66.23
58662;BME280;44432;49.786;22.760;2023-02-11T01:57:38;100892.06;;;-0.25;66.31
58662;BME280;44432;49.786;22.760;2023-02-11T02:00:12;100893.24;;;-0.25;66.15
58662;BME280;44432;49.786;22.760;2023-02-11T02:02:49;100890.26;;;-0.24;66.22
58662;BME280;44432;49.786;22.760;2023-02-11T02:05:27;100884.35;;;-0.24;66.06
58662;BME280;44432;49.786;22.760;2023-02-11T02:08:05;100885.80;;;-0.22;66.05
58662;BME280;44432;49.786;22.760;2023-02-11T02:10:42;100880.70;;;-0.21;66.03
58662;BME280;44432;49.786;22.760;2023-02-11T02:13:14;100875.91;;;-0.19;65.77
58662;BME280;44432;49.786;22.760;2023-02-11T02:15:49;100867.98;;;-0.22;65.58
58662;BME280;44432;49.786;22.760;2023-02-11T02:18:31;100870.37;;;-0.20;65.86
58662;BME280;44432;49.786;22.760;2023-02-11T02:27:31;100869.00;;;-0.17;65.56
58662;BME280;44432;49.786;22.760;2023-02-11T02:30:45;100860.42;;;-0.16;65.40
58662;BME280;44432;49.786;22.760;2023-02-11T02:33:29;100850.35;;;-0.15;65.54
58662;BME280;44432;49.786;22.760;2023-02-11T02:36:11;100841.19;;;-0.16;65.35
58662;BME280;44432;49.786;22.760;2023-02-11T02:38:47;100836.16;;;-0.18;65.31
58662;BME280;44432;49.786;22.760;2023-02-11T02:41:22;100830.38;;;-0.19;65.20
58662;BME280;44432;49.786;22.760;2023-02-11T02:43:54;100826.49;;;-0.20;65.25
58662;BME280;44432;49.786;22.760;2023-02-11T02:46:27;100821.09;;;-0.22;65.32
58662;BME280;44432;49.786;22.760;2023-02-11T02:48:58;100817.86;;;-0.23;65.32
58662;BME280;44432;49.786;22.760;2023-02-11T02:51:50;100819.70;;;-0.25;65.21
58662;BME280;44432;49.786;22.760;2023-02-11T02:54:39;100816.73;;;-0.27;65.30
58662;BME280;44432;49.786;22.760;2023-02-11T02:57:26;100817.39;;;-0.29;65.28
58662;BME280;44432;49.786;22.760;2023-02-11T03:00:10;100810.22;;;-0.30;65.31
58662;BME280;44432;49.786;22.760;2023-02-11T03:02:53;100814.48;;;-0.32;65.28
58662;BME280;44432;49.786;22.760;2023-02-11T03:05:33;100814.71;;;-0.33;65.26
58662;BME280;44432;49.786;22.760;2023-02-11T03:08:13;100811.87;;;-0.35;65.16
58662;BME280;44432;49.786;22.760;2023-02-11T03:10:48;100813.48;;;-0.35;65.24
58662;BME280;44432;49.786;22.760;2023-02-11T03:13:24;100813.77;;;-0.37;65.13
58662;BME280;44432;49.786;22.760;2023-02-11T03:15:58;100822.23;;;-0.37;65.13
58662;BME280;44432;49.786;22.760;2023-02-11T03:18:32;100825.17;;;-0.37;65.13
58662;BME280;44432;49.786;22.760;2023-02-11T03:21:05;100834.73;;;-0.38;65.03
58662;BME280;44432;49.786;22.760;2023-02-11T03:23:40;100834.05;;;-0.38;65.03
58662;BME280;44432;49.786;22.760;2023-02-11T03:26:17;100830.14;;;-0.38;64.83
58662;BME280;44432;49.786;22.760;2023-02-11T03:28:57;100830.61;;;-0.40;64.89
58662;BME280;44432;49.786;22.760;2023-02-11T03:31:32;100833.85;;;-0.42;64.81
58662;BME280;44432;49.786;22.760;2023-02-11T03:34:08;100836.61;;;-0.45;64.78
58662;BME280;44432;49.786;22.760;2023-02-11T03:36:45;100831.20;;;-0.46;64.56
58662;BME280;44432;49.786;22.760;2023-02-11T03:39:22;100834.41;;;-0.48;64.65
58662;BME280;44432;49.786;22.760;2023-02-11T03:41:56;100832.56;;;-0.51;64.46
58662;BME280;44432;49.786;22.760;2023-02-11T03:44:31;100836.55;;;-0.54;64.47
58662;BME280;44432;49.786;22.760;2023-02-11T03:47:06;100831.48;;;-0.58;64.49
58662;BME280;44432;49.786;22.760;2023-02-11T03:49:39;100826.50;;;-0.61;64.39
58662;BME280;44432;49.786;22.760;2023-02-11T03:52:12;100818.83;;;-0.65;64.36
58662;BME280;44432;49.786;22.760;2023-02-11T03:54:45;100814.97;;;-0.73;64.22
58662;BME280;44432;49.786;22.760;2023-02-11T03:57:18;100812.52;;;-0.75;64.18
58662;BME280;44432;49.786;22.760;2023-02-11T03:59:54;100805.64;;;-0.80;64.17
58662;BME280;44432;49.786;22.760;2023-02-11T04:02:27;100797.85;;;-0.85;64.00
58662;BME280;44432;49.786;22.760;2023-02-11T04:05:00;100784.95;;;-0.88;64.28
58662;BME280;44432;49.786;22.760;2023-02-11T04:07:30;100782.06;;;-0.92;64.52
58662;BME280;44432;49.786;22.760;2023-02-11T04:10:01;100777.61;;;-0.95;64.43
58662;BME280;44432;49.786;22.760;2023-02-11T04:12:32;100772.67;;;-0.99;64.46
58662;BME280;44432;49.786;22.760;2023-02-11T04:15:03;100771.04;;;-1.03;64.40
58662;BME280;44432;49.786;22.760;2023-02-11T04:17:34;100762.88;;;-1.07;64.27
58662;BME280;44432;49.786;22.760;2023-02-11T04:20:05;100755.69;;;-1.11;64.39
58662;BME280;44432;49.786;22.760;2023-02-11T04:22:36;100744.63;;;-1.13;64.27
58662;BME280;44432;49.786;22.760;2023-02-11T04:25:09;100729.23;;;-1.15;64.47
58662;BME280;44432;49.786;22.760;2023-02-11T04:27:39;100723.83;;;-1.17;64.30
58662;BME280;44432;49.786;22.760;2023-02-11T04:30:11;100716.74;;;-1.20;64.27
58662;BME280;44432;49.786;22.760;2023-02-11T04:32:42;100702.55;;;-1.22;64.34
58662;BME280;44432;49.786;22.760;2023-02-11T04:35:13;100688.65;;;-1.23;64.25
58662;BME280;44432;49.786;22.760;2023-02-11T04:37:43;100688.46;;;-1.26;64.29
58662;BME280;44432;49.786;22.760;2023-02-11T04:40:14;100692.22;;;-1.25;64.41
58662;BME280;44432;49.786;22.760;2023-02-11T04:42:45;100692.05;;;-1.25;64.10
58662;BME280;44432;49.786;22.760;2023-02-11T04:45:15;100688.73;;;-1.27;64.20
58662;BME280;44432;49.786;22.760;2023-02-11T04:47:46;100679.51;;;-1.28;64.12
58662;BME280;44432;49.786;22.760;2023-02-11T04:50:17;100677.66;;;-1.29;64.25
58662;BME280;44432;49.786;22.760;2023-02-11T04:52:48;100676.67;;;-1.30;64.44
58662;BME280;44432;49.786;22.760;2023-02-11T04:55:19;100673.16;;;-1.29;64.30
58662;BME280;44432;49.786;22.760;2023-02-11T04:57:50;100660.05;;;-1.32;64.19
58662;BME280;44432;49.786;22.760;2023-02-11T05:00:21;100655.94;;;-1.30;64.41
58662;BME280;44432;49.786;22.760;2023-02-11T05:02:52;100654.53;;;-1.29;64.38
58662;BME280;44432;49.786;22.760;2023-02-11T05:05:22;100655.77;;;-1.30;64.26
58662;BME280;44432;49.786;22.760;2023-02-11T05:07:53;100657.71;;;-1.31;64.14
58662;BME280;44432;49.786;22.760;2023-02-11T05:10:24;100659.61;;;-1.30;64.30
58662;BME280;44432;49.786;22.760;2023-02-11T05:12:55;100656.15;;;-1.30;64.29
58662;BME280;44432;49.786;22.760;2023-02-11T05:15:26;100646.59;;;-1.30;64.12
58662;BME280;44432;49.786;22.760;2023-02-11T05:17:57;100646.38;;;-1.29;64.07
58662;BME280;44432;49.786;22.760;2023-02-11T05:20:28;100641.21;;;-1.27;64.28
58662;BME280;44432;49.786;22.760;2023-02-11T05:22:58;100637.14;;;-1.25;64.00
58662;BME280;44432;49.786;22.760;2023-02-11T05:25:29;100623.23;;;-1.24;64.00
58662;BME280;44432;49.786;22.760;2023-02-11T05:28:00;100620.23;;;-1.23;63.87
58662;BME280;44432;49.786;22.760;2023-02-11T05:30:31;100619.45;;;-1.22;64.01
58662;BME280;44432;49.786;22.760;2023-02-11T05:33:02;100617.48;;;-1.21;63.97
58662;BME280;44432;49.786;22.760;2023-02-11T05:35:33;100616.60;;;-1.18;63.99
58662;BME280;44432;49.786;22.760;2023-02-11T05:38:03;100615.63;;;-1.16;63.90
58662;BME280;44432;49.786;22.760;2023-02-11T05:40:34;100609.64;;;-1.15;64.03
58662;BME280;44432;49.786;22.760;2023-02-11T05:43:05;100609.13;;;-1.12;63.92
58662;BME280;44432;49.786;22.760;2023-02-11T05:45:36;100610.66;;;-1.10;63.97
58662;BME280;44432;49.786;22.760;2023-02-11T05:48:08;100613.33;;;-1.08;63.74
58662;BME280;44432;49.786;22.760;2023-02-11T05:50:39;100611.27;;;-1.06;63.62
58662;BME280;44432;49.786;22.760;2023-02-11T05:53:10;100604.67;;;-1.03;63.48
58662;BME280;44432;49.786;22.760;2023-02-11T05:55:40;100601.91;;;-1.01;63.62
58662;BME280;44432;49.786;22.760;2023-02-11T05:58:11;100595.36;;;-1.01;63.46
58662;BME280;44432;49.786;22.760;2023-02-11T06:00:43;100601.24;;;-0.96;63.29
58662;BME280;44432;49.786;22.760;2023-02-11T06:03:17;100601.79;;;-0.94;63.35
58662;BME280;44432;49.786;22.760;2023-02-11T06:05:51;100597.92;;;-0.93;63.14
58662;BME280;44432;49.786;22.760;2023-02-11T06:08:22;100605.09;;;-0.89;62.86
58662;BME280;44432;49.786;22.760;2023-02-11T06:10:53;100605.44;;;-0.87;63.02
58662;BME280;44432;49.786;22.760;2023-02-11T06:13:24;100619.35;;;-0.83;62.97
58662;BME280;44432;49.786;22.760;2023-02-11T06:15:58;100630.83;;;-0.79;62.82
58662;BME280;44432;49.786;22.760;2023-02-11T06:18:30;100632.70;;;-0.77;62.56
58662;BME280;44432;49.786;22.760;2023-02-11T06:21:04;100630.08;;;-0.74;62.64
58662;BME280;44432;49.786;22.760;2023-02-11T06:23:35;100624.17;;;-0.71;62.43
58662;BME280;44432;49.786;22.760;2023-02-11T06:26:08;100622.47;;;-0.69;62.43
58662;BME280;44432;49.786;22.760;2023-02-11T06:28:38;100601.58;;;-0.67;62.36
58662;BME280;44432;49.786;22.760;2023-02-11T06:31:09;100577.14;;;-0.63;62.60
58662;BME280;44432;49.786;22.760;2023-02-11T06:33:41;100552.55;;;-0.60;62.54
58662;BME280;44432;49.786;22.760;2023-02-11T06:36:16;100538.34;;;-0.57;62.55
58662;BME280;44432;49.786;22.760;2023-02-11T06:38:47;100525.55;;;-0.55;62.53
58662;BME280;44432;49.786;22.760;2023-02-11T06:41:19;100520.36;;;-0.53;62.62
58662;BME280;44432;49.786;22.760;2023-02-11T06:43:50;100517.36;;;-0.52;62.51
58662;BME280;44432;49.786;22.760;2023-02-11T06:46:22;100520.89;;;-0.48;62.30
58662;BME280;44432;49.786;22.760;2023-02-11T06:48:54;100507.65;;;-0.45;62.20
58662;BME280;44432;49.786;22.760;2023-02-11T06:51:25;100501.27;;;-0.40;62.09
58662;BME280;44432;49.786;22.760;2023-02-11T06:53:56;100506.84;;;-0.34;62.06
58662;BME280;44432;49.786;22.760;2023-02-11T06:56:27;100507.10;;;-0.28;62.00
58662;BME280;44432;49.786;22.760;2023-02-11T06:58:58;100514.74;;;-0.23;61.80
58662;BME280;44432;49.786;22.760;2023-02-11T07:01:29;100512.73;;;-0.19;61.69
58662;BME280;44432;49.786;22.760;2023-02-11T07:04:00;100511.75;;;-0.13;61.73
58662;BME280;44432;49.786;22.760;2023-02-11T07:06:31;100522.91;;;-0.08;61.74
58662;BME280;44432;49.786;22.760;2023-02-11T07:09:02;100523.31;;;-0.02;61.41
58662;BME280;44432;49.786;22.760;2023-02-11T07:11:33;100516.70;;;0.03;61.42
58662;BME280;44432;49.786;22.760;2023-02-11T07:14:06;100504.58;;;0.08;61.36
58662;BME280;44432;49.786;22.760;2023-02-11T07:16:38;100501.55;;;0.16;61.23
58662;BME280;44432;49.786;22.760;2023-02-11T07:19:09;100510.66;;;0.26;61.07
58662;BME280;44432;49.786;22.760;2023-02-11T07:21:54;100509.61;;;0.35;60.89
58662;BME280;44432;49.786;22.760;2023-02-11T07:24:28;100509.71;;;0.43;60.84
58662;BME280;44432;49.786;22.760;2023-02-11T07:26:59;100518.27;;;0.51;60.70
58662;BME280;44432;49.786;22.760;2023-02-11T07:29:29;100519.88;;;0.59;60.66
58662;BME280;44432;49.786;22.760;2023-02-11T07:32:00;100511.42;;;0.68;60.46
58662;BME280;44432;49.786;22.760;2023-02-11T07:34:31;100505.73;;;0.76;60.12
58662;BME280;44432;49.786;22.760;2023-02-11T07:37:01;100510.87;;;0.81;59.66
58662;BME280;44432;49.786;22.760;2023-02-11T07:39:32;100512.98;;;0.87;59.84
58662;BME280;44432;49.786;22.760;2023-02-11T07:42:04;100515.69;;;0.97;60.07
58662;BME280;44432;49.786;22.760;2023-02-11T07:44:35;100514.31;;;1.08;59.61
58662;BME280;44432;49.786;22.760;2023-02-11T07:47:05;100508.55;;;1.17;59.66
58662;BME280;44432;49.786;22.760;2023-02-11T07:49:37;100509.25;;;1.23;59.26
58662;BME280;44432;49.786;22.760;2023-02-11T07:52:08;100506.15;;;1.32;59.62
58662;BME280;44432;49.786;22.760;2023-02-11T07:54:39;100507.92;;;1.38;59.61
58662;BME280;44432;49.786;22.760;2023-02-11T07:57:10;100516.48;;;1.43;59.00
58662;BME280;44432;49.786;22.760;2023-02-11T07:59:41;100512.77;;;1.46;58.79
58662;BME280;44432;49.786;22.760;2023-02-11T08:02:11;100495.63;;;1.50;58.88
58662;BME280;44432;49.786;22.760;2023-02-11T08:04:42;100485.29;;;1.56;58.70
58662;BME280;44432;49.786;22.760;2023-02-11T08:07:16;100481.80;;;1.54;58.63
58662;BME280;44432;49.786;22.760;2023-02-11T08:09:48;100489.91;;;1.61;58.19
58662;BME280;44432;49.786;22.760;2023-02-11T08:12:18;100486.34;;;1.66;58.54
58662;BME280;44432;49.786;22.760;2023-02-11T08:14:49;100478.45;;;1.67;57.77
58662;BME280;44432;49.786;22.760;2023-02-11T08:17:20;100483.20;;;1.68;58.05
58662;BME280;44432;49.786;22.760;2023-02-11T08:19:51;100484.45;;;1.70;57.86
58662;BME280;44432;49.786;22.760;2023-02-11T08:22:22;100479.98;;;1.72;57.87
58662;BME280;44432;49.786;22.760;2023-02-11T08:24:52;100481.89;;;1.72;57.50
58662;BME280;44432;49.786;22.760;2023-02-11T08:27:23;100477.40;;;1.74;57.91
58662;BME280;44432;49.786;22.760;2023-02-11T08:29:54;100477.96;;;1.79;57.79
58662;BME280;44432;49.786;22.760;2023-02-11T08:32:28;100475.91;;;1.83;57.67
58662;BME280;44432;49.786;22.760;2023-02-11T08:34:58;100470.54;;;1.79;57.20
58662;BME280;44432;49.786;22.760;2023-02-11T08:37:29;100473.86;;;1.85;57.05
58662;BME280;44432;49.786;22.760;2023-02-11T08:40:00;100476.73;;;1.90;57.47
58662;BME280;44432;49.786;22.760;2023-02-11T08:42:31;100475.44;;;1.95;57.10
58662;BME280;44432;49.786;22.760;2023-02-11T08:45:02;100474.92;;;2.01;57.18
58662;BME280;44432;49.786;22.760;2023-02-11T08:47:33;100476.89;;;2.09;56.68
58662;BME280;44432;49.786;22.760;2023-02-11T08:50:04;100471.52;;;2.14;57.07
58662;BME280;44432;49.786;22.760;2023-02-11T08:52:36;100471.10;;;2.19;56.56
58662;BME280;44432;49.786;22.760;2023-02-11T08:55:07;100465.81;;;2.24;57.06
58662;BME280;44432;49.786;22.760;2023-02-11T08:57:38;100461.75;;;2.31;56.99
58662;BME280;44432;49.786;22.760;2023-02-11T09:00:11;100460.52;;;2.40;57.00
58662;BME280;44432;49.786;22.760;2023-02-11T09:02:42;100455.58;;;2.49;56.66
58662;BME280;44432;49.786;22.760;2023-02-11T09:05:13;100450.17;;;2.57;56.37
58662;BME280;44432;49.786;22.760;2023-02-11T09:07:44;100444.73;;;2.65;56.34
58662;BME280;44432;49.786;22.760;2023-02-11T09:10:14;100449.77;;;2.73;56.25
58662;BME280;44432;49.786;22.760;2023-02-11T09:12:45;100442.20;;;2.80;56.34
58662;BME280;44432;49.786;22.760;2023-02-11T09:15:16;100441.10;;;2.83;55.55
58662;BME280;44432;49.786;22.760;2023-02-11T09:17:47;100435.48;;;2.81;55.50
58662;BME280;44432;49.786;22.760;2023-02-11T09:20:17;100433.24;;;2.81;55.61
58662;BME280;44432;49.786;22.760;2023-02-11T09:22:48;100435.95;;;2.86;55.30
58662;BME280;44432;49.786;22.760;2023-02-11T09:25:19;100436.52;;;2.89;55.17
58662;BME280;44432;49.786;22.760;2023-02-11T09:27:50;100430.06;;;2.96;55.40
58662;BME280;44432;49.786;22.760;2023-02-11T09:30:22;100432.76;;;3.01;55.12
58662;BME280;44432;49.786;22.760;2023-02-11T09:32:52;100424.80;;;3.04;55.30
58662;BME280;44432;49.786;22.760;2023-02-11T09:35:23;100422.05;;;3.11;55.11
58662;BME280;44432;49.786;22.760;2023-02-11T09:37:54;100421.80;;;3.18;55.10
58662;BME280;44432;49.786;22.760;2023-02-11T09:40:25;100420.16;;;3.22;55.35
58662;BME280;44432;49.786;22.760;2023-02-11T09:42:58;100420.44;;;3.25;55.12
58662;BME280;44432;49.786;22.760;2023-02-11T09:45:31;100412.91;;;3.26;54.69
58662;BME280;44432;49.786;22.760;2023-02-11T09:48:06;100405.46;;;3.31;54.82
58662;BME280;44432;49.786;22.760;2023-02-11T09:50:43;100399.64;;;3.30;54.47
58662;BME280;44432;49.786;22.760;2023-02-11T09:53:19;100391.39;;;3.29;54.38
58662;BME280;44432;49.786;22.760;2023-02-11T09:55:53;100377.94;;;3.32;54.43
58662;BME280;44432;49.786;22.760;2023-02-11T09:58:28;100367.55;;;3.35;54.56
58662;BME280;44432;49.786;22.760;2023-02-11T10:01:04;100363.11;;;3.39;54.47
58662;BME280;44432;49.786;22.760;2023-02-11T10:03:54;100364.77;;;3.38;54.22
58662;BME280;44432;49.786;22.760;2023-02-11T10:06:37;100357.54;;;3.42;54.44
58662;BME280;44432;49.786;22.760;2023-02-11T10:09:25;100346.84;;;3.46;54.42
58662;BME280;44432;49.786;22.760;2023-02-11T10:12:09;100355.06;;;3.53;54.24
58662;BME280;44432;49.786;22.760;2023-02-11T10:15:00;100352.64;;;3.59;53.89
58662;BME280;44432;49.786;22.760;2023-02-11T10:17:40;100349.45;;;3.67;53.95
58662;BME280;44432;49.786;22.760;2023-02-11T10:20:22;100340.70;;;3.82;53.96
58662;BME280;44432;49.786;22.760;2023-02-11T10:22:56;100327.86;;;3.94;52.30
58662;BME280;44432;49.786;22.760;2023-02-11T10:25:32;100321.08;;;3.92;52.49
58662;BME280;44432;49.786;22.760;2023-02-11T10:28:12;100317.15;;;3.92;52.61
58662;BME280;44432;49.786;22.760;2023-02-11T10:30:51;100314.55;;;3.93;52.90
58662;BME280;44432;49.786;22.760;2023-02-11T10:33:29;100319.20;;;3.96;53.02
58662;BME280;44432;49.786;22.760;2023-02-11T10:36:01;100317.43;;;3.97;52.86
58662;BME280;44432;49.786;22.760;2023-02-11T10:38:33;100320.86;;;3.97;52.89
58662;BME280;44432;49.786;22.760;2023-02-11T10:41:08;100320.42;;;3.90;52.10
58662;BME280;44432;49.786;22.760;2023-02-11T10:43:42;100322.25;;;3.85;52.06
58662;BME280;44432;49.786;22.760;2023-02-11T10:46:17;100315.79;;;3.82;52.58
58662;BME280;44432;49.786;22.760;2023-02-11T10:48:51;100298.63;;;3.81;52.57
58662;BME280;44432;49.786;22.760;2023-02-11T10:51:24;100285.29;;;3.82;52.68
58662;BME280;44432;49.786;22.760;2023-02-11T10:54:13;100277.42;;;3.85;52.85
58662;BME280;44432;49.786;22.760;2023-02-11T10:56:49;100265.46;;;3.89;52.96
58662;BME280;44432;49.786;22.760;2023-02-11T10:59:28;100256.41;;;3.95;52.71
58662;BME280;44432;49.786;22.760;2023-02-11T11:02:01;100244.00;;;3.98;52.41
58662;BME280;44432;49.786;22.760;2023-02-11T11:04:38;100232.60;;;3.95;52.60
58662;BME280;44432;49.786;22.760;2023-02-11T11:07:27;100234.66;;;3.95;52.26
58662;BME280;44432;49.786;22.760;2023-02-11T11:10:02;100222.70;;;3.90;52.12
58662;BME280;44432;49.786;22.760;2023-02-11T11:12:47;100229.33;;;3.90;52.42
58662;BME280;44432;49.786;22.760;2023-02-11T11:15:22;100229.55;;;3.90;52.28
58662;BME280;44432;49.786;22.760;2023-02-11T11:18:12;100218.54;;;3.87;52.27
58662;BME280;44432;49.786;22.760;2023-02-11T11:20:56;100210.08;;;3.80;51.92
58662;BME280;44432;49.786;22.760;2023-02-11T11:23:29;100201.98;;;3.78;52.06
58662;BME280;44432;49.786;22.760;2023-02-11T11:26:03;100207.30;;;3.75;51.76
58662;BME280;44432;49.786;22.760;2023-02-11T11:28:38;100210.95;;;3.75;51.87
58662;BME280;44432;49.786;22.760;2023-02-11T11:31:15;100209.10;;;3.76;51.49
58662;BME280;44432;49.786;22.760;2023-02-11T11:33:47;100219.30;;;3.79;51.88
58662;BME280;44432;49.786;22.760;2023-02-11T11:36:20;100218.99;;;3.84;52.00
58662;BME280;44432;49.786;22.760;2023-02-11T11:38:54;100216.84;;;3.86;51.91
58662;BME280;44432;49.786;22.760;2023-02-11T11:41:28;100214.59;;;3.93;51.79
58662;BME280;44432;49.786;22.760;2023-02-11T11:44:03;100212.28;;;3.99;51.71
58662;BME280;44432;49.786;22.760;2023-02-11T11:46:45;100200.74;;;4.09;51.75
58662;BME280;44432;49.786;22.760;2023-02-11T11:49:27;100182.27;;;4.21;51.47
58662;BME280;44432;49.786;22.760;2023-02-11T11:52:09;100184.17;;;4.32;51.46
58662;BME280;44432;49.786;22.760;2023-02-11T11:54:42;100173.71;;;4.43;51.21
58662;BME280;44432;49.786;22.760;2023-02-11T11:57:19;100164.14;;;4.49;50.95
58662;BME280;44432;49.786;22.760;2023-02-11T11:59:52;100159.04;;;4.55;50.95
58662;BME280;44432;49.786;22.760;2023-02-11T12:02:41;100155.87;;;4.59;50.61
58662;BME280;44432;49.786;22.760;2023-02-11T12:05:24;100153.42;;;4.64;50.75
58662;BME280;44432;49.786;22.760;2023-02-11T12:08:02;100149.55;;;4.66;50.71
58662;BME280;44432;49.786;22.760;2023-02-11T12:10:48;100151.23;;;4.70;50.16
58662;BME280;44432;49.786;22.760;2023-02-11T12:13:36;100146.16;;;4.69;50.14
58662;BME280;44432;49.786;22.760;2023-02-11T12:16:17;100147.05;;;4.69;50.08
58662;BME280;44432;49.786;22.760;2023-02-11T12:19:09;100147.35;;;4.71;50.26
58662;BME280;44432;49.786;22.760;2023-02-11T12:21:50;100143.85;;;4.74;49.94
58662;BME280;44432;49.786;22.760;2023-02-11T12:24:36;100138.05;;;4.73;49.81
58662;BME280;44432;49.786;22.760;2023-02-11T12:27:16;100151.16;;;4.68;49.53
58662;BME280;44432;49.786;22.760;2023-02-11T12:29:58;100159.28;;;4.65;49.75
58662;BME280;44432;49.786;22.760;2023-02-11T12:32:37;100168.66;;;4.60;49.91
58662;BME280;44432;49.786;22.760;2023-02-11T12:35:26;100170.44;;;4.58;50.10
58662;BME280;44432;49.786;22.760;2023-02-11T12:38:26;100171.77;;;4.60;50.38
58662;BME280;44432;49.786;22.760;2023-02-11T12:41:12;100164.48;;;4.51;50.12
58662;BME280;44432;49.786;22.760;2023-02-11T12:44:13;100160.64;;;4.49;50.78
58662;BME280;44432;49.786;22.760;2023-02-11T12:46:50;100151.57;;;4.53;50.66
58662;BME280;44432;49.786;22.760;2023-02-11T12:49:45;100150.53;;;4.53;50.22
58662;BME280;44432;49.786;22.760;2023-02-11T12:52:21;100150.89;;;4.58;50.44
58662;BME280;44432;49.786;22.760;2023-02-11T12:54:57;100147.59;;;4.67;50.75
58662;BME280;44432;49.786;22.760;2023-02-11T12:57:31;100142.77;;;4.76;51.03
58662;BME280;44432;49.786;22.760;2023-02-11T13:00:12;100144.48;;;4.82;50.61
58662;BME280;44432;49.786;22.760;2023-02-11T13:02:46;100152.95;;;4.81;50.57
58662;BME280;44432;49.786;22.760;2023-02-11T13:05:28;100131.06;;;4.71;50.67
58662;BME280;44432;49.786;22.760;2023-02-11T13:08:08;100148.48;;;4.77;50.79
58662;BME280;44432;49.786;22.760;2023-02-11T13:10:42;100148.31;;;4.73;50.87
58662;BME280;44432;49.786;22.760;2023-02-11T13:13:20;100151.61;;;4.68;50.57
58662;BME280;44432;49.786;22.760;2023-02-11T13:15:55;100147.70;;;4.60;50.66
58662;BME280;44432;49.786;22.760;2023-02-11T13:21:40;100111.79;;;4.43;50.96
58662;BME280;44432;49.786;22.760;2023-02-11T13:24:21;100092.14;;;4.32;51.04
58662;BME280;44432;49.786;22.760;2023-02-11T13:26:59;100079.46;;;4.24;51.33
58662;BME280;44432;49.786;22.760;2023-02-11T13:29:35;100071.40;;;4.15;51.10
58662;BME280;44432;49.786;22.760;2023-02-11T13:32:11;100067.48;;;4.04;51.17